sensor_id;sensor_type;location;lat;lon;timestamp;P1;durP1;ratioP1;P2;durP2;ratioP2
33593;SDS011;19920;52.242;20.940;2023-04-02T00:00:33;8.77;;;5.25;;
33593;SDS011;19920;52.242;20.940;2023-04-02T00:03:03;7.68;;;5.18;;
33593;SDS011;19920;52.242;20.940;2023-04-02T00:11:03;10.07;;;6.50;;
33593;SDS011;19920;52.242;20.940;2023-04-02T00:13:39;8.50;;;5.93;;
33593;SDS011;19920;52.242;20.940;2023-04-02T00:16:10;8.95;;;5.97;;
33593;SDS011;19920;52.242;20.940;2023-04-02T00:18:42;8.77;;;6.18;;
33593;SDS011;19920;52.242;20.940;2023-04-02T00:21:21;9.48;;;6.05;;
33593;SDS011;19920;52.242;20.940;2023-04-02T00:23:47;9.15;;;5.85;;
33593;SDS011;19920;52.242;20.940;2023-04-02T00:26:19;8.65;;;6.32;;
33593;SDS011;19920;52.242;20.940;2023-04-02T00:28:45;10.23;;;6.00;;
33593;SDS011;19920;52.242;20.940;2023-04-02T00:31:11;11.23;;;6.13;;
33593;SDS011;19920;52.242;20.940;2023-04-02T00:33:37;9.13;;;6.47;;
33593;SDS011;19920;52.242;20.940;2023-04-02T00:36:06;9.25;;;6.32;;
33593;SDS011;19920;52.242;20.940;2023-04-02T00:38:32;8.68;;;6.30;;
33593;SDS011;19920;52.242;20.940;2023-04-02T00:41:03;10.07;;;6.65;;
33593;SDS011;19920;52.242;20.940;2023-04-02T00:43:31;8.30;;;5.53;;
33593;SDS011;19920;52.242;20.940;2023-04-02T00:46:02;9.40;;;6.40;;
33593;SDS011;19920;52.242;20.940;2023-04-02T00:51:23;10.55;;;6.88;;
33593;SDS011;19920;52.242;20.940;2023-04-02T00:53:53;10.63;;;6.75;;
33593;SDS011;19920;52.242;20.940;2023-04-02T00:56:26;9.68;;;6.15;;
33593;SDS011;19920;52.242;20.940;2023-04-02T00:58:55;8.82;;;6.13;;
33593;SDS011;19920;52.242;20.940;2023-04-02T01:01:23;11.27;;;6.20;;
33593;SDS011;19920;52.242;20.940;2023-04-02T01:04:01;8.73;;;5.70;;
33593;SDS011;19920;52.242;20.940;2023-04-02T01:06:31;7.72;;;5.18;;
33593;SDS011;19920;52.242;20.940;2023-04-02T01:15:17;7.18;;;5.13;;
33593;SDS011;19920;52.242;20.940;2023-04-02T01:20:37;5.85;;;4.30;;
33593;SDS011;19920;52.242;20.940;2023-04-02T01:26:10;6.65;;;4.85;;
33593;SDS011;19920;52.242;20.940;2023-04-02T01:31:36;6.88;;;4.43;;
33593;SDS011;19920;52.242;20.940;2023-04-02T01:34:03;6.85;;;5.10;;
33593;SDS011;19920;52.242;20.940;2023-04-02T01:41:48;5.65;;;4.30;;
33593;SDS011;19920;52.242;20.940;2023-04-02T01:44:47;6.15;;;4.40;;
33593;SDS011;19920;52.242;20.940;2023-04-02T01:47:17;7.95;;;4.47;;
33593;SDS011;19920;52.242;20.940;2023-04-02T01:52:16;7.20;;;4.40;;
33593;SDS011;19920;52.242;20.940;2023-04-02T01:54:44;6.30;;;4.22;;
33593;SDS011;19920;52.242;20.940;2023-04-02T01:57:12;5.57;;;4.18;;
33593;SDS011;19920;52.242;20.940;2023-04-02T01:59:38;5.05;;;3.88;;
33593;SDS011;19920;52.242;20.940;2023-04-02T02:02:04;5.50;;;4.07;;
33593;SDS011;19920;52.242;20.940;2023-04-02T02:04:33;5.20;;;4.10;;
33593;SDS011;19920;52.242;20.940;2023-04-02T02:06:59;6.32;;;4.18;;
33593;SDS011;19920;52.242;20.940;2023-04-02T02:09:27;6.70;;;4.07;;
33593;SDS011;19920;52.242;20.940;2023-04-02T02:12:00;5.50;;;4.40;;
33593;SDS011;19920;52.242;20.940;2023-04-02T02:14:28;6.28;;;4.57;;
33593;SDS011;19920;52.242;20.940;2023-04-02T02:16:55;6.28;;;4.13;;
33593;SDS011;19920;52.242;20.940;2023-04-02T02:19:31;5.53;;;3.58;;
33593;SDS011;19920;52.242;20.940;2023-04-02T02:22:09;4.93;;;3.70;;
33593;SDS011;19920;52.242;20.940;2023-04-02T02:24:51;4.93;;;3.70;;
33593;SDS011;19920;52.242;20.940;2023-04-02T02:29:57;5.18;;;3.78;;
33593;SDS011;19920;52.242;20.940;2023-04-02T02:32:31;5.43;;;3.58;;
33593;SDS011;19920;52.242;20.940;2023-04-02T02:37:46;5.10;;;3.55;;
33593;SDS011;19920;52.242;20.940;2023-04-02T02:40:35;5.30;;;3.88;;
33593;SDS011;19920;52.242;20.940;2023-04-02T02:43:08;5.53;;;4.03;;
33593;SDS011;19920;52.242;20.940;2023-04-02T02:45:36;5.18;;;4.15;;
33593;SDS011;19920;52.242;20.940;2023-04-02T02:48:07;5.88;;;4.63;;
33593;SDS011;19920;52.242;20.940;2023-04-02T02:50:37;5.57;;;4.30;;
33593;SDS011;19920;52.242;20.940;2023-04-02T02:53:07;5.85;;;4.30;;
33593;SDS011;19920;52.242;20.940;2023-04-02T02:55:44;5.65;;;4.53;;
33593;SDS011;19920;52.242;20.940;2023-04-02T02:58:15;7.55;;;5.05;;
33593;SDS011;19920;52.242;20.940;2023-04-02T03:00:44;7.82;;;5.38;;
33593;SDS011;19920;52.242;20.940;2023-04-02T03:03:12;7.55;;;5.47;;
33593;SDS011;19920;52.242;20.940;2023-04-02T03:05:41;8.52;;;5.93;;
33593;SDS011;19920;52.242;20.940;2023-04-02T03:08:20;7.88;;;5.72;;
33593;SDS011;19920;52.242;20.940;2023-04-02T03:11:07;8.10;;;5.57;;
33593;SDS011;19920;52.242;20.940;2023-04-02T03:13:41;7.63;;;5.30;;
33593;SDS011;19920;52.242;20.940;2023-04-02T03:24:11;8.18;;;5.70;;
33593;SDS011;19920;52.242;20.940;2023-04-02T03:26:48;8.02;;;5.95;;
33593;SDS011;19920;52.242;20.940;2023-04-02T03:29:42;7.50;;;5.35;;
33593;SDS011;19920;52.242;20.940;2023-04-02T03:32:28;7.50;;;5.68;;
33593;SDS011;19920;52.242;20.940;2023-04-02T03:34:59;8.23;;;6.00;;
33593;SDS011;19920;52.242;20.940;2023-04-02T03:37:42;8.05;;;6.07;;
33593;SDS011;19920;52.242;20.940;2023-04-02T03:40:19;9.73;;;6.85;;
33593;SDS011;19920;52.242;20.940;2023-04-02T03:42:52;10.00;;;6.40;;
33593;SDS011;19920;52.242;20.940;2023-04-02T03:45:26;12.63;;;6.30;;
33593;SDS011;19920;52.242;20.940;2023-04-02T03:50:34;9.70;;;7.20;;
33593;SDS011;19920;52.242;20.940;2023-04-02T03:53:02;8.95;;;6.85;;
33593;SDS011;19920;52.242;20.940;2023-04-02T03:55:29;8.82;;;6.20;;
33593;SDS011;19920;52.242;20.940;2023-04-02T04:03:37;14.43;;;8.90;;
33593;SDS011;19920;52.242;20.940;2023-04-02T04:06:27;15.68;;;9.95;;
33593;SDS011;19920;52.242;20.940;2023-04-02T04:11:25;15.20;;;9.50;;
33593;SDS011;19920;52.242;20.940;2023-04-02T04:14:05;14.43;;;9.80;;
33593;SDS011;19920;52.242;20.940;2023-04-02T04:17:24;14.50;;;10.00;;
33593;SDS011;19920;52.242;20.940;2023-04-02T04:19:27;16.10;;;10.13;;
33593;SDS011;19920;52.242;20.940;2023-04-02T04:22:16;16.05;;;10.43;;
33593;SDS011;19920;52.242;20.940;2023-04-02T04:24:57;15.02;;;9.60;;
33593;SDS011;19920;52.242;20.940;2023-04-02T04:27:28;17.20;;;10.48;;
33593;SDS011;19920;52.242;20.940;2023-04-02T04:30:14;15.35;;;10.00;;
33593;SDS011;19920;52.242;20.940;2023-04-02T04:32:47;20.33;;;10.93;;
33593;SDS011;19920;52.242;20.940;2023-04-02T04:37:57;13.98;;;9.07;;
33593;SDS011;19920;52.242;20.940;2023-04-02T04:40:55;14.73;;;9.48;;
33593;SDS011;19920;52.242;20.940;2023-04-02T04:46:47;14.20;;;9.32;;
33593;SDS011;19920;52.242;20.940;2023-04-02T04:49:27;13.30;;;9.02;;
33593;SDS011;19920;52.242;20.940;2023-04-02T04:52:04;16.80;;;8.98;;
33593;SDS011;19920;52.242;20.940;2023-04-02T04:54:38;15.10;;;9.05;;
33593;SDS011;19920;52.242;20.940;2023-04-02T04:57:04;14.00;;;9.25;;
33593;SDS011;19920;52.242;20.940;2023-04-02T04:59:43;14.90;;;9.60;;
33593;SDS011;19920;52.242;20.940;2023-04-02T05:02:17;14.63;;;9.50;;
33593;SDS011;19920;52.242;20.940;2023-04-02T05:04:48;15.65;;;9.85;;
33593;SDS011;19920;52.242;20.940;2023-04-02T05:07:22;16.35;;;9.80;;
33593;SDS011;19920;52.242;20.940;2023-04-02T05:12:50;17.60;;;10.73;;
33593;SDS011;19920;52.242;20.940;2023-04-02T05:18:17;20.00;;;12.50;;
33593;SDS011;19920;52.242;20.940;2023-04-02T05:21:32;21.98;;;13.00;;
33593;SDS011;19920;52.242;20.940;2023-04-02T05:24:56;21.60;;;12.73;;
33593;SDS011;19920;52.242;20.940;2023-04-02T05:27:04;21.13;;;11.60;;
33593;SDS011;19920;52.242;20.940;2023-04-02T05:29:40;22.38;;;13.48;;
33593;SDS011;19920;52.242;20.940;2023-04-02T05:32:18;22.25;;;13.07;;
33593;SDS011;19920;52.242;20.940;2023-04-02T05:34:54;22.02;;;12.45;;
33593;SDS011;19920;52.242;20.940;2023-04-02T05:37:22;22.95;;;13.90;;
33593;SDS011;19920;52.242;20.940;2023-04-02T05:39:52;24.33;;;13.77;;
33593;SDS011;19920;52.242;20.940;2023-04-02T05:42:24;27.02;;;14.75;;
33593;SDS011;19920;52.242;20.940;2023-04-02T05:45:02;24.10;;;14.18;;
33593;SDS011;19920;52.242;20.940;2023-04-02T05:47:38;25.88;;;14.15;;
33593;SDS011;19920;52.242;20.940;2023-04-02T05:50:10;22.95;;;13.45;;
33593;SDS011;19920;52.242;20.940;2023-04-02T05:53:13;22.02;;;12.38;;
33593;SDS011;19920;52.242;20.940;2023-04-02T05:55:39;18.63;;;11.13;;
33593;SDS011;19920;52.242;20.940;2023-04-02T05:58:13;17.75;;;10.23;;
33593;SDS011;19920;52.242;20.940;2023-04-02T06:01:00;16.42;;;10.05;;
33593;SDS011;19920;52.242;20.940;2023-04-02T06:03:44;17.63;;;9.93;;
33593;SDS011;19920;52.242;20.940;2023-04-02T06:06:16;16.85;;;9.82;;
33593;SDS011;19920;52.242;20.940;2023-04-02T06:08:51;13.95;;;8.63;;
33593;SDS011;19920;52.242;20.940;2023-04-02T06:11:29;14.18;;;8.13;;
33593;SDS011;19920;52.242;20.940;2023-04-02T06:13:57;15.23;;;8.88;;
33593;SDS011;19920;52.242;20.940;2023-04-02T06:16:24;14.13;;;8.27;;
33593;SDS011;19920;52.242;20.940;2023-04-02T06:18:54;13.60;;;7.53;;
33593;SDS011;19920;52.242;20.940;2023-04-02T06:21:21;11.40;;;7.38;;
33593;SDS011;19920;52.242;20.940;2023-04-02T06:26:34;11.68;;;8.05;;
33593;SDS011;19920;52.242;20.940;2023-04-02T06:29:12;12.20;;;7.95;;
33593;SDS011;19920;52.242;20.940;2023-04-02T06:32:10;11.65;;;6.38;;
33593;SDS011;19920;52.242;20.940;2023-04-02T06:34:39;8.93;;;6.50;;
33593;SDS011;19920;52.242;20.940;2023-04-02T06:39:54;7.18;;;5.05;;
33593;SDS011;19920;52.242;20.940;2023-04-02T06:42:23;8.38;;;5.32;;
33593;SDS011;19920;52.242;20.940;2023-04-02T06:44:53;7.53;;;5.07;;
33593;SDS011;19920;52.242;20.940;2023-04-02T06:50:12;8.20;;;5.85;;
33593;SDS011;19920;52.242;20.940;2023-04-02T06:52:56;9.35;;;5.65;;
33593;SDS011;19920;52.242;20.940;2023-04-02T06:57:58;9.32;;;6.28;;
33593;SDS011;19920;52.242;20.940;2023-04-02T07:02:57;11.70;;;7.30;;
33593;SDS011;19920;52.242;20.940;2023-04-02T07:05:25;9.98;;;6.93;;
33593;SDS011;19920;52.242;20.940;2023-04-02T07:07:50;12.63;;;7.03;;
33593;SDS011;19920;52.242;20.940;2023-04-02T07:10:16;10.38;;;6.85;;
33593;SDS011;19920;52.242;20.940;2023-04-02T07:12:44;10.65;;;7.28;;
33593;SDS011;19920;52.242;20.940;2023-04-02T07:15:14;10.52;;;6.95;;
33593;SDS011;19920;52.242;20.940;2023-04-02T07:17:40;11.00;;;7.28;;
33593;SDS011;19920;52.242;20.940;2023-04-02T07:20:08;10.23;;;7.13;;
33593;SDS011;19920;52.242;20.940;2023-04-02T07:22:48;9.60;;;7.18;;
33593;SDS011;19920;52.242;20.940;2023-04-02T07:25:14;10.60;;;7.15;;
33593;SDS011;19920;52.242;20.940;2023-04-02T07:27:39;10.63;;;7.13;;
33593;SDS011;19920;52.242;20.940;2023-04-02T07:30:05;10.38;;;6.88;;
33593;SDS011;19920;52.242;20.940;2023-04-02T07:32:31;11.27;;;8.10;;
33593;SDS011;19920;52.242;20.940;2023-04-02T07:34:57;12.30;;;7.95;;
33593;SDS011;19920;52.242;20.940;2023-04-02T07:37:23;12.77;;;8.18;;
33593;SDS011;19920;52.242;20.940;2023-04-02T07:39:48;13.30;;;8.10;;
33593;SDS011;19920;52.242;20.940;2023-04-02T07:42:14;12.63;;;7.90;;
33593;SDS011;19920;52.242;20.940;2023-04-02T07:44:39;12.27;;;7.45;;
33593;SDS011;19920;52.242;20.940;2023-04-02T07:47:05;12.18;;;8.10;;
33593;SDS011;19920;52.242;20.940;2023-04-02T07:49:32;13.15;;;8.73;;
33593;SDS011;19920;52.242;20.940;2023-04-02T07:51:58;11.23;;;7.78;;
33593;SDS011;19920;52.242;20.940;2023-04-02T07:54:23;11.90;;;8.00;;
33593;SDS011;19920;52.242;20.940;2023-04-02T07:56:51;13.48;;;7.97;;
33593;SDS011;19920;52.242;20.940;2023-04-02T07:59:16;13.93;;;8.65;;
33593;SDS011;19920;52.242;20.940;2023-04-02T08:01:42;12.75;;;7.82;;
33593;SDS011;19920;52.242;20.940;2023-04-02T08:04:14;11.07;;;7.70;;
33593;SDS011;19920;52.242;20.940;2023-04-02T08:06:45;12.65;;;8.10;;
33593;SDS011;19920;52.242;20.940;2023-04-02T08:09:12;12.80;;;8.38;;
33593;SDS011;19920;52.242;20.940;2023-04-02T08:11:41;15.45;;;8.10;;
33593;SDS011;19920;52.242;20.940;2023-04-02T08:14:08;12.10;;;7.38;;
33593;SDS011;19920;52.242;20.940;2023-04-02T08:19:17;12.57;;;7.90;;
33593;SDS011;19920;52.242;20.940;2023-04-02T08:21:43;14.10;;;8.65;;
33593;SDS011;19920;52.242;20.940;2023-04-02T08:24:10;13.55;;;8.43;;
33593;SDS011;19920;52.242;20.940;2023-04-02T08:26:35;12.30;;;7.72;;
33593;SDS011;19920;52.242;20.940;2023-04-02T08:29:01;11.73;;;8.35;;
33593;SDS011;19920;52.242;20.940;2023-04-02T08:31:27;13.18;;;8.30;;
33593;SDS011;19920;52.242;20.940;2023-04-02T08:33:54;12.18;;;7.93;;
33593;SDS011;19920;52.242;20.940;2023-04-02T08:36:24;10.70;;;7.93;;
33593;SDS011;19920;52.242;20.940;2023-04-02T08:38:53;12.00;;;7.88;;
33593;SDS011;19920;52.242;20.940;2023-04-02T08:41:20;11.70;;;8.15;;
33593;SDS011;19920;52.242;20.940;2023-04-02T08:46:35;11.88;;;7.80;;
33593;SDS011;19920;52.242;20.940;2023-04-02T08:49:42;10.77;;;7.13;;
33593;SDS011;19920;52.242;20.940;2023-04-02T08:52:17;10.15;;;6.95;;
33593;SDS011;19920;52.242;20.940;2023-04-02T08:54:52;12.50;;;7.40;;
33593;SDS011;19920;52.242;20.940;2023-04-02T09:00:35;8.75;;;6.22;;
33593;SDS011;19920;52.242;20.940;2023-04-02T09:03:15;10.85;;;6.80;;
33593;SDS011;19920;52.242;20.940;2023-04-02T09:05:44;11.13;;;6.53;;
33593;SDS011;19920;52.242;20.940;2023-04-02T09:10:52;10.88;;;6.53;;
33593;SDS011;19920;52.242;20.940;2023-04-02T09:13:26;9.20;;;6.22;;
33593;SDS011;19920;52.242;20.940;2023-04-02T09:15:59;7.72;;;5.95;;
33593;SDS011;19920;52.242;20.940;2023-04-02T09:18:37;9.13;;;6.30;;
33593;SDS011;19920;52.242;20.940;2023-04-02T09:23:45;9.05;;;6.38;;
33593;SDS011;19920;52.242;20.940;2023-04-02T09:26:44;8.07;;;5.65;;
33593;SDS011;19920;52.242;20.940;2023-04-02T09:29:14;7.55;;;5.68;;
33593;SDS011;19920;52.242;20.940;2023-04-02T09:32:07;8.68;;;5.82;;
33593;SDS011;19920;52.242;20.940;2023-04-02T09:34:49;10.23;;;6.15;;
33593;SDS011;19920;52.242;20.940;2023-04-02T09:37:29;10.02;;;5.32;;
33593;SDS011;19920;52.242;20.940;2023-04-02T09:40:08;7.30;;;5.20;;
33593;SDS011;19920;52.242;20.940;2023-04-02T09:45:41;7.85;;;5.20;;
33593;SDS011;19920;52.242;20.940;2023-04-02T09:48:18;7.68;;;4.90;;
33593;SDS011;19920;52.242;20.940;2023-04-02T09:50:48;6.85;;;4.47;;
33593;SDS011;19920;52.242;20.940;2023-04-02T09:53:27;6.78;;;4.45;;
33593;SDS011;19920;52.242;20.940;2023-04-02T09:59:03;6.40;;;4.20;;
33593;SDS011;19920;52.242;20.940;2023-04-02T10:04:36;6.32;;;3.95;;
33593;SDS011;19920;52.242;20.940;2023-04-02T10:07:09;4.80;;;3.30;;
33593;SDS011;19920;52.242;20.940;2023-04-02T10:10:00;4.38;;;3.30;;
33593;SDS011;19920;52.242;20.940;2023-04-02T10:12:29;6.30;;;3.92;;
33593;SDS011;19920;52.242;20.940;2023-04-02T10:15:05;4.78;;;3.80;;
33593;SDS011;19920;52.242;20.940;2023-04-02T10:17:38;5.15;;;3.75;;
33593;SDS011;19920;52.242;20.940;2023-04-02T10:20:17;4.40;;;3.05;;
33593;SDS011;19920;52.242;20.940;2023-04-02T10:22:46;4.40;;;3.17;;
33593;SDS011;19920;52.242;20.940;2023-04-02T10:25:13;4.07;;;2.72;;
33593;SDS011;19920;52.242;20.940;2023-04-02T10:27:50;4.75;;;2.88;;
33593;SDS011;19920;52.242;20.940;2023-04-02T10:30:29;4.28;;;2.72;;
33593;SDS011;19920;52.242;20.940;2023-04-02T10:38:42;4.03;;;2.70;;
33593;SDS011;19920;52.242;20.940;2023-04-02T10:46:31;3.83;;;2.60;;
33593;SDS011;19920;52.242;20.940;2023-04-02T10:55:04;3.25;;;2.90;;
33593;SDS011;19920;52.242;20.940;2023-04-02T10:57:39;5.10;;;3.15;;
33593;SDS011;19920;52.242;20.940;2023-04-02T11:02:38;4.50;;;3.53;;
33593;SDS011;19920;52.242;20.940;2023-04-02T11:05:27;4.90;;;3.88;;
33593;SDS011;19920;52.242;20.940;2023-04-02T11:07:58;5.35;;;3.75;;
33593;SDS011;19920;52.242;20.940;2023-04-02T11:10:27;5.28;;;3.67;;
33593;SDS011;19920;52.242;20.940;2023-04-02T11:13:01;5.50;;;4.28;;
33593;SDS011;19920;52.242;20.940;2023-04-02T11:15:48;6.50;;;4.47;;
33593;SDS011;19920;52.242;20.940;2023-04-02T11:18:25;8.27;;;5.18;;
33593;SDS011;19920;52.242;20.940;2023-04-02T11:21:03;7.13;;;5.22;;
33593;SDS011;19920;52.242;20.940;2023-04-02T11:23:57;10.13;;;6.22;;
33593;SDS011;19920;52.242;20.940;2023-04-02T11:29:05;10.15;;;6.78;;
33593;SDS011;19920;52.242;20.940;2023-04-02T11:31:39;10.88;;;7.22;;
33593;SDS011;19920;52.242;20.940;2023-04-02T11:34:05;12.27;;;6.93;;
33593;SDS011;19920;52.242;20.940;2023-04-02T11:44:43;9.93;;;6.63;;
33593;SDS011;19920;52.242;20.940;2023-04-02T11:47:16;10.38;;;7.07;;
33593;SDS011;19920;52.242;20.940;2023-04-02T11:52:34;10.77;;;6.82;;
33593;SDS011;19920;52.242;20.940;2023-04-02T12:09:28;10.50;;;6.80;;
33593;SDS011;19920;52.242;20.940;2023-04-02T12:14:52;7.07;;;5.53;;
33593;SDS011;19920;52.242;20.940;2023-04-02T12:19:49;7.75;;;5.72;;
33593;SDS011;19920;52.242;20.940;2023-04-02T12:22:17;8.13;;;5.95;;
33593;SDS011;19920;52.242;20.940;2023-04-02T12:24:47;8.27;;;6.25;;
33593;SDS011;19920;52.242;20.940;2023-04-02T12:27:17;10.98;;;6.82;;
33593;SDS011;19920;52.242;20.940;2023-04-02T12:29:47;9.90;;;7.00;;
33593;SDS011;19920;52.242;20.940;2023-04-02T12:32:24;9.13;;;6.07;;
33593;SDS011;19920;52.242;20.940;2023-04-02T12:34:53;10.32;;;6.53;;
33593;SDS011;19920;52.242;20.940;2023-04-02T12:37:26;8.27;;;5.80;;
33593;SDS011;19920;52.242;20.940;2023-04-02T12:39:54;8.32;;;5.70;;
33593;SDS011;19920;52.242;20.940;2023-04-02T12:42:39;8.30;;;5.72;;
33593;SDS011;19920;52.242;20.940;2023-04-02T12:45:05;6.03;;;4.70;;
33593;SDS011;19920;52.242;20.940;2023-04-02T12:47:32;7.57;;;5.07;;
33593;SDS011;19920;52.242;20.940;2023-04-02T12:49:58;7.35;;;5.20;;
33593;SDS011;19920;52.242;20.940;2023-04-02T12:52:26;6.10;;;4.65;;
33593;SDS011;19920;52.242;20.940;2023-04-02T12:55:00;6.88;;;4.68;;
33593;SDS011;19920;52.242;20.940;2023-04-02T12:59:53;6.97;;;4.68;;
33593;SDS011;19920;52.242;20.940;2023-04-02T13:05:32;5.95;;;4.63;;
33593;SDS011;19920;52.242;20.940;2023-04-02T13:07:59;6.82;;;5.00;;
33593;SDS011;19920;52.242;20.940;2023-04-02T13:10:25;7.05;;;5.28;;
33593;SDS011;19920;52.242;20.940;2023-04-02T13:12:59;6.47;;;4.38;;
33593;SDS011;19920;52.242;20.940;2023-04-02T13:15:27;7.35;;;4.80;;
33593;SDS011;19920;52.242;20.940;2023-04-02T13:20:56;7.50;;;5.00;;
33593;SDS011;19920;52.242;20.940;2023-04-02T13:26:09;6.22;;;4.47;;
33593;SDS011;19920;52.242;20.940;2023-04-02T13:28:43;5.70;;;4.25;;
33593;SDS011;19920;52.242;20.940;2023-04-02T13:31:25;6.50;;;4.00;;
33593;SDS011;19920;52.242;20.940;2023-04-02T13:33:52;5.80;;;4.32;;
33593;SDS011;19920;52.242;20.940;2023-04-02T13:36:18;6.07;;;4.32;;
33593;SDS011;19920;52.242;20.940;2023-04-02T13:38:43;6.55;;;4.75;;
33593;SDS011;19920;52.242;20.940;2023-04-02T13:41:25;7.47;;;4.82;;
33593;SDS011;19920;52.242;20.940;2023-04-02T13:43:53;7.05;;;4.57;;
33593;SDS011;19920;52.242;20.940;2023-04-02T13:46:21;6.38;;;4.55;;
33593;SDS011;19920;52.242;20.940;2023-04-02T13:48:51;7.57;;;4.90;;
33593;SDS011;19920;52.242;20.940;2023-04-02T13:51:19;6.15;;;4.22;;
33593;SDS011;19920;52.242;20.940;2023-04-02T13:53:48;5.65;;;3.92;;
33593;SDS011;19920;52.242;20.940;2023-04-02T13:56:17;7.07;;;4.50;;
33593;SDS011;19920;52.242;20.940;2023-04-02T13:58:44;6.28;;;4.47;;
33593;SDS011;19920;52.242;20.940;2023-04-02T14:01:10;7.72;;;4.80;;
33593;SDS011;19920;52.242;20.940;2023-04-02T14:03:37;6.72;;;4.70;;
33593;SDS011;19920;52.242;20.940;2023-04-02T14:11:12;4.57;;;3.65;;
33593;SDS011;19920;52.242;20.940;2023-04-02T14:19:11;5.05;;;3.47;;
33593;SDS011;19920;52.242;20.940;2023-04-02T14:32:54;5.70;;;3.88;;
33593;SDS011;19920;52.242;20.940;2023-04-02T14:35:34;5.55;;;3.72;;
33593;SDS011;19920;52.242;20.940;2023-04-02T14:41:21;5.05;;;3.60;;
33593;SDS011;19920;52.242;20.940;2023-04-02T14:44:06;6.43;;;4.30;;
33593;SDS011;19920;52.242;20.940;2023-04-02T14:46:35;6.10;;;3.85;;
33593;SDS011;19920;52.242;20.940;2023-04-02T14:51:52;6.03;;;4.03;;
33593;SDS011;19920;52.242;20.940;2023-04-02T14:54:33;7.30;;;4.55;;
33593;SDS011;19920;52.242;20.940;2023-04-02T15:02:11;6.30;;;4.20;;
33593;SDS011;19920;52.242;20.940;2023-04-02T15:04:54;7.47;;;4.60;;
33593;SDS011;19920;52.242;20.940;2023-04-02T15:07:24;7.85;;;4.90;;
33593;SDS011;19920;52.242;20.940;2023-04-02T15:10:31;8.25;;;4.88;;
33593;SDS011;19920;52.242;20.940;2023-04-02T15:13:06;6.35;;;4.53;;
33593;SDS011;19920;52.242;20.940;2023-04-02T15:15:42;7.60;;;5.18;;
33593;SDS011;19920;52.242;20.940;2023-04-02T15:18:14;6.10;;;4.32;;
33593;SDS011;19920;52.242;20.940;2023-04-02T15:20:44;6.00;;;4.28;;
33593;SDS011;19920;52.242;20.940;2023-04-02T15:29:06;6.75;;;4.35;;
33593;SDS011;19920;52.242;20.940;2023-04-02T15:31:35;5.97;;;4.00;;
33593;SDS011;19920;52.242;20.940;2023-04-02T15:34:19;6.85;;;4.00;;
33593;SDS011;19920;52.242;20.940;2023-04-02T15:36:55;7.37;;;4.67;;
33593;SDS011;19920;52.242;20.940;2023-04-02T15:42:29;8.95;;;5.20;;
33593;SDS011;19920;52.242;20.940;2023-04-02T15:47:40;5.95;;;4.50;;
33593;SDS011;19920;52.242;20.940;2023-04-02T15:50:57;7.90;;;5.18;;
33593;SDS011;19920;52.242;20.940;2023-04-02T15:53:41;8.25;;;4.82;;
33593;SDS011;19920;52.242;20.940;2023-04-02T15:56:22;7.68;;;4.82;;
33593;SDS011;19920;52.242;20.940;2023-04-02T16:02:01;7.15;;;4.88;;
33593;SDS011;19920;52.242;20.940;2023-04-02T16:12:30;7.47;;;5.13;;
33593;SDS011;19920;52.242;20.940;2023-04-02T16:15:02;9.23;;;5.78;;
33593;SDS011;19920;52.242;20.940;2023-04-02T16:17:43;8.10;;;5.53;;
33593;SDS011;19920;52.242;20.940;2023-04-02T16:20:21;8.88;;;5.90;;
33593;SDS011;19920;52.242;20.940;2023-04-02T16:23:12;10.68;;;6.20;;
33593;SDS011;19920;52.242;20.940;2023-04-02T16:25:44;8.57;;;5.88;;
33593;SDS011;19920;52.242;20.940;2023-04-02T16:28:23;11.15;;;6.53;;
33593;SDS011;19920;52.242;20.940;2023-04-02T16:38:56;9.25;;;4.80;;
33593;SDS011;19920;52.242;20.940;2023-04-02T16:46:53;11.63;;;5.20;;
33593;SDS011;19920;52.242;20.940;2023-04-02T17:03:40;7.47;;;4.47;;
33593;SDS011;19920;52.242;20.940;2023-04-02T17:06:40;8.40;;;5.20;;
33593;SDS011;19920;52.242;20.940;2023-04-02T17:17:00;7.47;;;4.63;;
33593;SDS011;19920;52.242;20.940;2023-04-02T17:19:28;8.30;;;4.80;;
33593;SDS011;19920;52.242;20.940;2023-04-02T17:22:01;7.85;;;5.40;;
33593;SDS011;19920;52.242;20.940;2023-04-02T17:30:17;9.73;;;5.15;;
33593;SDS011;19920;52.242;20.940;2023-04-02T17:33:06;11.35;;;5.93;;
33593;SDS011;19920;52.242;20.940;2023-04-02T17:44:18;10.35;;;6.40;;
33593;SDS011;19920;52.242;20.940;2023-04-02T17:52:27;12.07;;;6.55;;
33593;SDS011;19920;52.242;20.940;2023-04-02T18:00:20;13.10;;;6.70;;
33593;SDS011;19920;52.242;20.940;2023-04-02T18:09:04;11.27;;;6.45;;
33593;SDS011;19920;52.242;20.940;2023-04-02T18:26:08;6.97;;;4.45;;
33593;SDS011;19920;52.242;20.940;2023-04-02T18:37:07;8.40;;;4.47;;
33593;SDS011;19920;52.242;20.940;2023-04-02T18:47:52;10.13;;;4.10;;
33593;SDS011;19920;52.242;20.940;2023-04-02T18:50:28;7.15;;;4.30;;
33593;SDS011;19920;52.242;20.940;2023-04-02T18:52:54;6.72;;;4.30;;
33593;SDS011;19920;52.242;20.940;2023-04-02T18:55:26;7.70;;;4.70;;
33593;SDS011;19920;52.242;20.940;2023-04-02T18:58:05;10.90;;;5.90;;
33593;SDS011;19920;52.242;20.940;2023-04-02T19:00:44;8.93;;;5.90;;
33593;SDS011;19920;52.242;20.940;2023-04-02T19:06:03;8.40;;;5.75;;
33593;SDS011;19920;52.242;20.940;2023-04-02T19:08:35;7.20;;;4.90;;
33593;SDS011;19920;52.242;20.940;2023-04-02T19:14:00;6.38;;;4.90;;
33593;SDS011;19920;52.242;20.940;2023-04-02T19:19:19;10.07;;;5.63;;
33593;SDS011;19920;52.242;20.940;2023-04-02T19:22:18;8.40;;;5.90;;
33593;SDS011;19920;52.242;20.940;2023-04-02T19:33:26;13.90;;;7.38;;
33593;SDS011;19920;52.242;20.940;2023-04-02T19:42:18;14.35;;;8.23;;
33593;SDS011;19920;52.242;20.940;2023-04-02T19:45:49;13.07;;;7.82;;
33593;SDS011;19920;52.242;20.940;2023-04-02T19:47:59;15.13;;;8.63;;
33593;SDS011;19920;52.242;20.940;2023-04-02T19:50:32;14.02;;;8.00;;
33593;SDS011;19920;52.242;20.940;2023-04-02T19:52:58;15.38;;;7.88;;
33593;SDS011;19920;52.242;20.940;2023-04-02T19:55:24;14.00;;;8.55;;
33593;SDS011;19920;52.242;20.940;2023-04-02T19:57:51;15.95;;;8.65;;
33593;SDS011;19920;52.242;20.940;2023-04-02T20:00:16;13.45;;;7.90;;
33593;SDS011;19920;52.242;20.940;2023-04-02T20:02:42;14.98;;;8.30;;
33593;SDS011;19920;52.242;20.940;2023-04-02T20:05:08;15.73;;;8.20;;
33593;SDS011;19920;52.242;20.940;2023-04-02T20:07:34;12.88;;;8.27;;
33593;SDS011;19920;52.242;20.940;2023-04-02T20:10:00;13.02;;;8.13;;
33593;SDS011;19920;52.242;20.940;2023-04-02T20:12:25;14.77;;;7.72;;
33593;SDS011;19920;52.242;20.940;2023-04-02T20:14:51;11.60;;;6.05;;
33593;SDS011;19920;52.242;20.940;2023-04-02T20:17:17;10.40;;;5.72;;
33593;SDS011;19920;52.242;20.940;2023-04-02T20:19:42;9.73;;;5.13;;
33593;SDS011;19920;52.242;20.940;2023-04-02T20:22:08;7.55;;;4.93;;
33593;SDS011;19920;52.242;20.940;2023-04-02T20:24:33;8.23;;;4.40;;
33593;SDS011;19920;52.242;20.940;2023-04-02T20:26:59;7.35;;;4.38;;
33593;SDS011;19920;52.242;20.940;2023-04-02T20:29:25;5.93;;;3.60;;
33593;SDS011;19920;52.242;20.940;2023-04-02T20:31:53;8.13;;;3.70;;
33593;SDS011;19920;52.242;20.940;2023-04-02T20:34:19;5.78;;;3.25;;
33593;SDS011;19920;52.242;20.940;2023-04-02T20:36:44;7.15;;;3.50;;
33593;SDS011;19920;52.242;20.940;2023-04-02T20:39:10;6.20;;;2.85;;
33593;SDS011;19920;52.242;20.940;2023-04-02T20:41:43;6.32;;;2.83;;
33593;SDS011;19920;52.242;20.940;2023-04-02T20:44:09;5.00;;;2.60;;
33593;SDS011;19920;52.242;20.940;2023-04-02T20:46:36;5.50;;;2.65;;